Date,TemperatureHighF,TemperatureAvgF,TemperatureLowF,DewpointHighF,DewpointAvgF,DewpointLowF,HumidityHigh,HumidityAvg,HumidityLow,PressureMaxIn,PressureMinIn,WindSpeedMaxMPH,WindSpeedAvgMPH,GustSpeedMaxMPH,PrecipitationSumIn
2013-1-1,37.0,35.3,35.0,36.0,30.6,16.0,100,86,41,30.25,30.04,255,0,255,0.04
2013-1-2,36.0,32.2,28.0,36.0,29.8,23.0,100,91,79,30.33,30.10,255,0,255,0.04
2013-1-3,35.0,29.2,27.0,28.0,24.0,19.0,100,82,54,30.39,30.29,2,0,9,0.00
2013-1-4,34.0,27.2,23.0,25.0,20.6,18.0,100,77,55,30.47,30.37,7,2,17,0.00
2013-1-5,43.0,31.9,25.0,30.0,22.4,19.0,100,70,40,30.57,30.36,6,1,14,0.01
2013-1-6,40.0,34.3,29.0,32.0,29.3,26.0,100,82,70,30.36,30.20,9,1,14,0.01
2013-1-7,42.0,31.9,24.0,30.0,25.1,21.0,100,77,50,30.57,30.31,2,0,10,0.00
2013-1-8,48.0,31.6,22.0,33.0,25.9,21.0,100,82,44,30.61,30.53,3,0,9,0.01
2013-1-9,58.0,43.6,31.0,48.0,40.2,30.0,100,89,66,30.59,30.52,5,0,9,0.01
2013-1-10,55.0,43.2,34.0,45.0,33.3,28.0,100,71,37,30.66,30.54,1,0,6,0.00
2013-1-11,51.0,44.0,36.0,50.0,42.0,31.0,100,93,63,30.54,30.27,2,0,6,0.02
2013-1-12,68.0,55.8,47.0,59.0,52.6,46.0,100,90,67,30.29,30.17,5,0,10,0.01
2013-1-13,66.0,57.2,49.0,56.0,52.8,48.0,100,86,65,30.18,30.09,3,1,14,0.00
2013-1-14,60.0,50.1,40.0,56.0,48.9,39.0,100,96,86,30.34,30.11,2,0,13,0.92
2013-1-15,40.0,37.5,33.0,39.0,36.8,32.0,100,98,97,30.35,30.21,1,0,6,2.33
2013-1-16,54.0,41.4,33.0,51.0,40.6,32.0,100,97,86,30.21,30.07,255,0,255,1.03
2013-1-17,41.0,35.0,30.0,40.0,34.4,29.0,100,98,95,30.20,30.07,255,0,255,0.61
2013-1-18,32.0,21.7,16.0,27.0,19.4,14.0,94,91,82,30.69,30.63,1,0,3,0.66
2013-1-19,42.0,26.0,15.0,35.0,23.7,14.0,100,91,69,30.66,30.29,255,0,255,0.44
2013-1-20,43.0,34.8,27.0,32.0,29.1,23.0,100,81,61,30.29,30.16,6,1,15,0.21
2013-1-21,43.0,32.8,24.0,29.0,21.8,9.0,100,67,45,30.22,30.03,8,1,16,0.03
2013-1-22,24.0,17.2,10.0,20.0,4.7,-3.0,100,61,37,30.42,30.09,8,2,15,0.01
2013-1-23,29.0,18.2,10.0,20.0,9.7,0.0,100,72,43,30.51,30.21,3,0,13,0.00
2013-1-24,32.0,22.4,7.0,32.0,15.0,2.0,100,74,49,30.65,30.12,10,2,20,0.00
2013-1-25,26.0,15.9,7.0,25.0,13.1,2.0,100,89,61,30.65,30.26,255,1,255,0.00
2013-1-26,33.0,27.8,22.0,31.0,23.8,18.0,100,85,66,30.54,30.24,255,1,255,0.07
2013-1-27,29.0,24.2,19.0,25.0,20.8,16.0,100,87,76,30.71,30.54,2,0,9,0.01
2013-1-28,57.0,41.0,29.0,44.0,35.8,25.0,100,83,59,30.61,30.32,2,0,10,0.17
2013-1-29,66.0,54.8,45.0,54.0,47.9,43.0,100,80,55,30.32,30.12,3,1,10,0.01
2013-1-30,58.0,58.0,57.0,58.0,57.5,54.0,100,99,90,30.12,29.43,1,0,13,0.02
2013-1-31,58.0,30.4,27.0,58.0,21.4,17.0,100,69,63,30.08,29.43,9,3,22,0.00
2013-2-1,31.0,20.3,13.0,31.0,12.2,3.0,100,71,57,30.52,29.95,6,2,16,0.00
2013-2-2,30.0,20.9,11.0,24.0,13.5,5.0,100,75,48,30.53,30.18,2,0,12,0.00
2013-2-3,31.0,27.0,24.0,26.0,23.5,19.0,100,87,77,30.18,30.00,10,3,20,0.05
2013-2-4,38.0,27.9,20.0,26.0,21.2,15.0,100,78,58,30.24,30.10,5,1,16,0.01
2013-2-5,43.0,38.2,35.0,35.0,31.4,25.0,100,77,64,30.11,30.04,6,1,22,0.00
2013-2-6,47.0,36.3,27.0,36.0,28.3,23.0,100,75,44,30.42,30.08,5,1,10,0.00
2013-2-7,33.0,30.8,28.0,32.0,29.1,23.0,100,93,76,30.46,30.24,1,0,8,0.05
2013-2-8,44.0,33.8,30.0,39.0,31.3,26.0,100,91,72,30.24,30.00,6,2,17,0.45
2013-2-9,39.0,29.5,23.0,27.0,17.6,16.0,100,63,39,30.52,30.20,255,2,255,0.01
2013-2-10,44.0,31.9,21.0,31.0,21.4,16.0,100,69,42,30.59,30.33,255,1,255,0.08
2013-2-11,56.0,46.4,33.0,50.0,40.8,30.0,100,83,52,30.33,30.03,6,1,15,0.06
2013-2-12,50.0,42.2,36.0,40.0,26.4,22.0,100,56,33,30.12,30.05,6,2,16,0.00
2013-2-13,39.0,37.2,32.0,39.0,35.5,29.0,100,94,70,30.06,29.72,5,0,14,0.10
2013-2-14,47.0,35.1,28.0,31.0,27.4,24.0,100,76,43,30.17,29.94,5,1,15,0.03
2013-2-15,49.0,35.2,27.0,36.0,29.8,24.0,100,83,50,30.21,30.07,5,1,15,0.03
2013-2-16,31.0,26.8,19.0,30.0,21.2,12.0,100,80,62,30.12,29.97,3,1,12,0.01
2013-2-17,23.0,19.0,14.0,19.0,9.7,3.0,100,69,49,30.41,30.06,8,2,18,0.00
2013-2-18,46.0,31.2,12.0,25.0,18.7,6.0,100,62,40,30.55,30.28,5,1,10,0.00
2013-2-19,43.0,37.2,30.0,37.0,26.4,13.0,100,67,39,30.28,29.94,6,2,20,0.04
2013-2-20,38.0,30.6,24.0,28.0,12.8,9.0,100,49,30,30.28,30.06,8,3,13,0.04
2013-2-21,43.0,32.9,22.0,23.0,16.5,12.0,100,53,32,30.40,30.26,255,1,255,0.00
2013-2-22,35.0,29.4,25.0,29.0,26.5,18.0,100,90,49,30.44,30.27,2,0,5,0.05
2013-2-23,49.0,35.6,29.0,43.0,34.1,28.0,100,95,80,30.27,29.96,255,0,255,0.20
2013-2-24,48.0,38.5,27.0,37.0,28.9,20.0,100,71,41,30.18,29.95,8,1,18,0.01
2013-2-25,35.0,28.8,25.0,25.0,22.8,20.0,100,79,62,30.30,30.18,1,0,6,0.00
2013-2-26,34.0,30.8,28.0,33.0,29.5,20.0,100,95,72,30.28,29.77,3,0,15,0.84
2013-2-27,43.0,36.0,30.0,35.0,32.2,28.0,100,87,68,29.91,29.74,5,1,14,0.01
2013-2-28,35.0,31.1,29.0,32.0,26.7,23.0,100,84,67,29.98,29.81,5,2,15,0.01
2013-3-1,34.0,30.1,28.0,29.0,25.6,22.0,100,84,67,30.05,29.95,6,2,16,0.01
2013-3-2,28.0,26.5,22.0,28.0,21.0,15.0,100,80,69,30.07,29.98,5,2,15,0.00
2013-3-3,25.0,22.1,20.0,21.0,16.9,12.0,100,81,69,30.14,30.02,9,3,20,0.00
2013-3-4,41.0,27.0,19.0,20.0,15.4,12.0,100,66,30,30.27,30.13,7,2,15,0.00
2013-3-5,46.0,35.0,27.0,33.0,28.2,20.0,100,79,46,30.22,29.73,3,0,9,0.69
2013-3-6,32.0,29.1,24.0,31.0,26.6,22.0,100,91,82,30.25,29.71,6,2,20,0.69
2013-3-7,32.0,29.3,28.0,28.0,25.6,23.0,100,87,73,30.41,30.24,7,2,15,0.02
2013-3-8,42.0,33.3,28.0,29.0,25.2,21.0,100,73,52,30.50,30.35,8,2,17,0.01
2013-3-9,56.0,38.7,21.0,56.0,30.6,19.0,100,77,36,30.53,27.67,23,1,7,0.01
2013-3-11,56.0,56.0,56.0,56.0,56.0,56.0,100,100,100,0.00,40.00,0,0,0,0.00
2013-5-24,57.0,51.4,45.0,40.0,35.2,33.0,70,54,44,30.23,30.11,5,2,12,0.00
2013-5-25,65.0,50.4,39.0,39.0,32.2,23.0,81,54,26,30.35,30.23,5,1,10,0.00
2013-5-26,68.0,54.6,44.0,44.0,39.9,36.0,85,61,31,30.29,30.22,5,1,10,0.00
2013-5-27,71.0,57.7,42.0,56.0,47.4,38.0,89,71,48,30.31,30.18,3,0,10,0.00
2013-5-28,78.0,66.3,54.0,61.0,56.8,52.0,96,74,45,30.22,30.13,5,1,9,0.00
2013-5-29,82.0,69.5,59.0,63.0,59.2,55.0,96,73,44,30.21,30.13,3,0,8,0.00
2013-5-30,81.0,67.0,52.0,64.0,58.0,51.0,98,76,38,30.25,30.17,5,0,9,0.00
2013-5-31,80.0,66.9,54.0,64.0,58.8,53.0,98,78,51,30.21,30.09,5,1,10,0.00
2013-6-1,80.0,69.4,58.0,65.0,60.1,57.0,97,74,48,30.12,30.00,6,1,14,0.00
2013-6-2,73.0,66.6,62.0,67.0,61.7,-99.9,97,88,77,30.00,29.90,3,1,9,1.17
2013-6-3,73.0,65.4,56.0,65.0,61.1,54.0,98,87,65,30.01,29.86,2,0,8,0.15
2013-6-4,73.0,60.9,50.0,62.0,55.9,49.0,99,85,61,30.14,30.01,1,0,6,0.01
2013-6-5,68.0,61.3,56.0,62.0,58.6,55.0,98,91,77,30.15,30.06,2,0,8,0.00
2013-6-6,67.0,61.7,59.0,66.0,60.6,58.0,99,97,88,30.06,29.83,2,0,8,1.71
2013-6-7,69.0,64.2,58.0,67.0,63.1,57.0,99,96,91,29.85,29.65,2,0,10,0.30
2013-6-8,78.0,64.2,56.0,64.0,58.1,54.0,99,83,53,30.13,29.85,2,0,9,0.17
2013-6-9,80.0,68.5,59.0,67.0,62.8,58.0,99,84,51,30.17,30.05,2,0,9,0.23
2013-6-10,73.0,65.7,59.0,66.0,63.5,57.0,98,93,77,30.08,29.86,5,1,12,0.65
2013-6-11,75.0,65.3,58.0,64.0,60.5,57.0,99,86,65,29.99,29.89,5,1,15,0.22
2013-6-12,84.0,70.4,59.0,71.0,65.0,58.0,98,84,61,30.00,29.89,5,1,13,0.02
2013-6-13,83.0,70.5,59.0,68.0,64.3,53.0,97,81,54,29.89,29.62,7,2,16,0.09
2013-6-14,72.0,61.8,54.0,57.0,54.4,52.0,94,78,54,30.08,29.78,2,0,10,0.01
2013-6-15,77.0,62.7,50.0,59.0,54.2,49.0,99,77,45,30.18,30.07,2,0,6,0.00
2013-6-16,78.0,67.3,56.0,66.0,61.0,54.0,98,82,57,30.11,30.01,5,1,12,0.01
2013-6-17,80.0,68.7,63.0,67.0,64.0,62.0,99,86,57,30.06,29.93,5,0,9,0.14
2013-6-18,70.0,64.9,58.0,67.0,63.5,57.0,99,96,87,29.96,29.83,3,0,7,1.09
2013-6-19,74.0,63.9,55.0,65.0,60.2,54.0,99,88,71,30.16,29.94,2,0,5,0.07
2013-6-20,73.0,65.3,61.0,65.0,61.7,60.0,98,89,70,30.25,30.16,3,1,7,0.00
2013-6-22,78.0,74.6,66.0,65.0,62.4,59.0,91,66,57,30.27,30.16,3,0,5,0.00
2013-6-23,83.0,69.4,60.0,68.0,63.4,58.0,99,84,43,30.22,30.13,3,0,8,0.13
2013-6-24,82.0,69.2,61.0,70.0,64.8,60.0,100,87,56,30.22,30.10,2,0,6,0.30
2013-6-25,80.0,68.8,61.0,71.0,65.4,61.0,99,90,67,30.14,30.02,3,0,9,0.02
2013-6-26,82.0,68.5,60.0,70.0,65.3,59.0,99,91,62,30.05,29.92,3,0,9,0.16
2013-6-27,76.0,67.9,63.0,70.0,65.6,62.0,99,92,76,29.94,29.75,3,0,14,0.12
2013-6-28,79.0,72.2,64.0,69.0,65.9,63.0,99,82,64,29.78,29.57,3,1,14,0.01
2013-6-29,79.0,68.5,59.0,69.0,63.0,58.0,99,84,56,29.75,29.60,3,1,9,0.09
2013-6-30,79.0,67.7,59.0,69.0,64.1,58.0,99,89,59,29.86,29.73,3,0,7,0.29
2013-7-1,76.0,67.8,62.0,67.0,64.8,61.0,99,91,71,29.98,29.83,5,1,9,0.07
2013-7-2,72.0,66.5,64.0,69.0,65.1,63.0,98,95,89,30.18,29.97,2,0,10,2.37
2013-7-3,72.0,67.4,65.0,70.0,66.9,65.0,99,98,92,30.26,30.15,1,0,8,3.01
2013-7-4,79.0,69.9,65.0,72.0,67.8,65.0,100,93,70,30.28,30.22,3,1,9,3.57
2013-7-5,79.0,70.3,65.0,71.0,67.5,65.0,99,91,75,30.27,30.19,5,1,10,0.42
2013-7-6,78.0,70.0,62.0,69.0,65.9,62.0,100,88,69,30.25,30.14,2,0,7,0.02
2013-7-7,78.0,69.4,64.0,71.0,66.6,63.0,99,91,74,30.19,30.10,3,1,9,0.33
2013-7-8,81.0,68.5,61.0,68.0,64.6,61.0,99,89,54,30.22,30.14,2,0,7,0.20
2013-7-9,84.0,72.4,64.0,70.0,66.6,62.0,99,84,50,30.19,30.08,2,0,5,0.01
2013-7-10,82.0,68.3,64.0,72.0,64.4,-99.9,99,92,63,30.10,29.97,2,0,9,1.05
2013-7-11,78.0,69.9,66.0,71.0,67.9,66.0,100,93,73,29.98,29.90,2,0,3,0.62
2013-7-12,71.0,65.8,63.0,66.0,63.7,61.0,99,93,75,30.08,29.90,3,0,8,0.02
2013-7-13,71.0,65.6,62.0,68.0,64.3,61.0,99,96,87,30.22,30.08,3,0,6,0.07
2013-7-14,80.0,70.9,66.0,70.0,67.2,65.0,98,89,69,30.36,30.22,2,1,10,0.17
2013-7-15,81.0,71.9,65.0,73.0,68.2,64.0,100,89,66,30.37,30.29,2,0,5,0.19
2013-7-16,87.0,72.0,61.0,72.0,66.8,61.0,100,85,55,30.35,30.25,2,0,6,0.00
2013-7-17,86.0,72.7,65.0,74.0,68.9,64.0,100,89,65,30.29,30.18,1,0,3,0.01
2013-7-18,86.0,73.7,65.0,74.0,69.3,65.0,100,88,59,30.22,30.08,1,0,5,0.01
2013-7-19,86.0,72.7,64.0,73.0,68.2,64.0,100,87,53,30.12,29.99,3,0,8,0.01
2013-7-20,84.0,73.6,67.0,72.0,68.5,65.0,98,85,59,30.02,29.91,5,0,8,0.01
2013-7-21,81.0,71.3,64.0,72.0,67.8,63.0,99,89,64,30.00,29.94,3,0,6,0.06
2013-7-22,79.0,70.3,64.0,71.0,67.1,64.0,99,90,69,29.98,29.83,3,0,8,0.07
2013-7-23,80.0,70.5,65.0,70.0,66.3,63.0,99,88,64,29.84,29.77,5,0,12,0.07
2013-7-24,79.0,69.9,63.0,67.0,64.4,62.0,99,84,59,29.92,29.78,3,0,8,0.00
2013-7-25,76.0,66.2,59.0,65.0,62.1,58.0,99,88,65,30.08,29.90,2,0,7,0.24
2013-7-26,77.0,64.9,53.0,67.0,60.3,52.0,99,86,60,30.14,30.06,3,0,9,0.14
2013-7-27,68.0,64.6,63.0,66.0,63.6,62.0,99,97,91,30.08,29.95,2,0,9,0.87
2013-7-28,77.0,67.0,59.0,67.0,63.2,58.0,99,88,65,30.05,29.95,2,0,7,0.01
2013-7-29,74.0,62.4,53.0,58.0,55.6,52.0,100,81,49,30.26,30.05,2,0,9,0.00
2013-7-30,74.0,62.4,51.0,64.0,57.4,50.0,100,85,59,30.30,30.20,3,0,7,0.00
2013-7-31,67.0,63.1,61.0,64.0,61.9,60.0,99,96,86,30.22,30.05,1,0,2,0.13
2013-8-1,78.0,67.4,63.0,68.0,64.5,61.0,100,91,68,30.04,29.91,3,0,12,0.33
2013-8-2,78.0,66.2,58.0,65.0,60.7,57.0,100,84,54,30.08,29.97,2,0,6,0.12
2013-8-3,78.0,67.1,58.0,69.0,63.2,57.0,99,88,66,30.07,29.98,3,0,7,0.00
2013-8-4,75.0,68.5,63.0,65.0,62.5,59.0,99,83,59,30.05,29.96,5,1,7,0.00
2013-8-8,78.0,73.9,69.0,71.0,69.7,67.0,96,87,77,30.06,30.01,2,0,7,0.00
2013-8-9,83.0,73.5,67.0,73.0,69.1,66.0,99,87,66,30.05,29.98,5,1,12,0.00
2013-8-10,81.0,73.0,67.0,72.0,68.7,66.0,98,87,66,30.10,30.03,3,0,10,0.00
2013-8-11,81.0,71.5,64.0,72.0,67.4,63.0,100,88,67,30.14,30.04,6,0,9,0.22
2013-8-12,82.0,70.4,64.0,71.0,66.9,64.0,100,89,64,30.09,29.97,3,0,8,0.46
2013-8-13,75.0,67.0,63.0,69.0,63.7,-99.9,99,92,80,29.98,29.84,3,0,12,0.49
2013-8-14,70.0,60.0,50.0,62.0,51.0,-99.9,96,79,52,30.16,29.90,2,0,7,0.01
2013-8-15,70.0,51.7,47.0,56.0,38.3,-99.9,99,81,58,30.22,30.15,3,0,7,0.00
2013-8-16,70.0,56.3,47.0,59.0,50.2,-99.9,99,86,64,30.25,30.18,3,0,5,0.00
2013-8-17,64.0,56.9,49.0,59.0,54.9,49.0,99,94,80,30.29,30.23,2,0,9,0.66
2013-8-18,69.0,61.3,59.0,65.0,59.0,-99.9,99,95,85,30.28,30.19,1,0,6,1.18
2013-8-19,72.0,61.6,61.0,68.0,50.3,-99.9,100,93,81,30.24,30.12,2,0,5,0.23
2013-8-20,77.0,69.9,63.0,70.0,64.7,-99.9,100,89,74,30.27,30.19,1,0,10,0.00
2013-8-21,77.0,67.4,61.0,71.0,65.7,61.0,100,94,80,30.30,30.19,1,0,5,0.27
2013-8-22,79.0,68.2,59.0,70.0,64.7,59.0,100,90,68,30.24,30.09,5,0,10,0.14
2013-8-23,78.0,66.8,60.0,70.0,64.0,60.0,100,91,70,30.20,30.04,2,0,9,0.00
2013-8-24,74.0,62.6,53.0,60.0,56.4,52.0,100,82,54,30.42,30.19,3,0,7,0.00
2013-8-25,74.0,60.3,52.0,61.0,53.4,-99.9,100,82,49,30.50,30.39,2,0,6,0.00
2013-8-26,77.0,62.5,50.0,63.0,57.1,50.0,100,85,59,30.44,30.22,2,0,6,0.00
2013-8-27,79.0,67.4,59.0,69.0,64.1,58.0,99,90,70,30.24,30.09,3,0,10,0.00
2013-8-28,79.0,74.0,69.0,71.0,68.8,66.0,94,84,73,30.06,29.96,3,0,10,0.00
2013-8-29,82.0,72.8,68.0,71.0,68.3,66.0,97,86,65,30.09,29.94,2,0,8,0.00
2013-8-30,79.0,69.2,64.0,69.0,66.0,63.0,99,90,69,30.12,30.00,5,0,6,0.00
2013-8-31,83.0,69.0,62.0,71.0,65.7,61.0,99,90,62,30.02,29.91,2,0,9,0.07
2013-9-1,79.0,68.7,62.0,71.0,64.7,-99.9,100,90,70,29.97,29.88,2,0,9,0.08
2013-9-2,80.0,69.3,62.0,70.0,66.0,62.0,100,90,67,29.97,29.88,5,0,9,0.01
2013-9-3,79.0,68.2,58.0,68.0,63.4,57.0,100,86,57,30.06,29.89,5,0,9,0.01
2013-9-4,77.0,61.7,51.0,60.0,55.4,51.0,100,83,44,30.22,30.06,2,0,5,0.00
2013-9-5,78.0,63.4,52.0,62.0,56.8,52.0,100,82,49,30.24,30.17,3,0,8,0.00
2013-9-6,74.0,60.7,54.0,61.0,56.8,52.0,100,88,62,30.29,30.20,2,0,6,0.00
2013-9-7,77.0,62.0,50.0,64.0,55.7,49.0,99,83,51,30.23,30.07,3,0,6,0.00
2013-9-8,79.0,65.3,53.0,68.0,59.8,-99.9,99,86,63,30.11,30.02,1,0,6,0.00
2013-9-9,75.0,64.9,58.0,68.0,63.0,58.0,100,94,76,30.26,30.11,2,0,9,0.00
2013-9-10,83.0,68.2,60.0,71.0,65.1,60.0,100,91,60,30.32,30.23,3,0,7,0.09
2013-9-11,76.0,66.0,61.0,71.0,65.1,61.0,100,97,84,30.29,30.25,0,0,3,0.10
2013-9-24,71.0,62.1,53.0,59.0,56.4,51.0,98,83,61,30.18,30.05,2,0,5,0.01
2013-9-25,65.0,56.3,50.0,59.0,54.3,50.0,100,94,75,30.07,29.98,1,0,5,0.03
2013-9-26,70.0,58.9,52.0,58.0,54.5,50.0,100,87,55,30.16,30.01,3,0,8,0.02
2013-9-27,67.0,55.2,45.0,54.0,50.5,44.0,99,86,60,30.32,30.16,2,0,6,0.00
2013-9-28,61.0,54.6,46.0,53.0,51.3,45.0,99,89,73,30.36,30.30,1,0,3,0.00
2013-9-29,66.0,53.0,45.0,56.0,48.8,-99.9,100,89,67,30.31,30.16,1,0,5,0.00
2013-9-30,68.0,56.5,46.0,59.0,52.6,45.0,100,88,61,30.20,30.11,1,0,3,0.00
2013-10-1,58.0,53.4,52.0,55.0,52.2,51.0,98,96,91,30.22,30.16,0,0,0,0.00
2013-10-2,75.0,59.6,49.0,61.0,54.9,49.0,100,87,57,30.27,30.17,2,0,7,0.00
2013-10-3,73.0,61.6,52.0,65.0,57.9,51.0,100,89,62,30.24,30.16,2,0,9,0.00
2013-10-4,78.0,63.0,52.0,66.0,59.0,52.0,100,88,57,30.25,30.16,3,0,7,0.00
2013-10-5,79.0,64.5,54.0,66.0,59.6,54.0,100,86,58,30.24,30.13,2,0,5,0.00
2013-10-6,75.0,64.3,55.0,64.0,59.3,55.0,100,85,59,30.15,29.97,3,1,13,0.00
2013-10-7,65.0,58.4,45.0,64.0,55.5,43.0,99,90,72,30.16,29.85,2,0,12,1.42
2013-10-8,61.0,49.4,41.0,47.0,43.8,40.0,99,83,59,30.37,30.15,2,0,12,0.09
2013-10-9,62.0,49.4,41.0,46.0,42.9,40.0,99,81,46,30.39,30.28,5,0,8,0.00
2013-10-10,61.0,52.0,45.0,59.0,50.7,42.0,99,95,87,30.29,30.10,1,0,5,0.13
2013-10-11,64.0,59.0,55.0,59.0,56.5,54.0,97,91,82,30.11,30.02,2,0,9,0.01
2013-10-12,62.0,58.1,55.0,61.0,57.2,54.0,99,97,93,30.21,30.07,1,0,3,0.05
2013-10-13,62.0,57.9,56.0,59.0,56.2,-99.9,100,96,88,30.35,30.20,2,0,5,0.05
2013-10-14,64.0,57.0,52.0,59.0,55.7,51.0,100,95,82,30.37,30.28,1,0,5,0.27
2013-10-15,65.0,53.4,44.0,55.0,49.4,44.0,100,88,57,30.33,30.20,2,0,8,0.01
2013-10-16,66.0,55.4,46.0,57.0,52.2,45.0,100,90,67,30.22,30.06,2,0,7,0.00
2013-10-17,64.0,58.2,53.0,62.0,57.1,51.0,99,96,88,30.07,29.90,2,0,7,0.13
2013-10-18,61.0,49.8,40.0,51.0,43.5,39.0,97,81,50,30.14,30.01,2,1,9,0.01
2013-10-19,60.0,51.5,44.0,55.0,47.8,43.0,99,88,64,30.11,29.93,3,0,9,0.00
2013-10-20,58.0,43.4,35.0,43.0,34.1,-99.9,94,75,37,30.24,30.03,2,0,12,0.00
2013-10-21,64.0,45.8,33.0,48.0,39.9,32.0,98,83,46,30.27,30.11,3,0,8,0.01
2013-10-22,60.0,51.4,44.0,48.0,46.4,43.0,98,84,62,30.11,29.91,5,1,12,0.01
2013-10-23,50.0,43.9,34.0,47.0,39.9,31.0,99,87,59,30.09,29.80,5,1,18,0.07
2013-10-24,41.0,35.5,29.0,33.0,30.4,27.0,95,82,70,30.32,30.09,6,1,12,0.01
2013-10-25,42.0,34.0,25.0,30.0,26.5,23.0,96,75,56,30.50,30.31,5,1,10,0.01
2013-10-26,52.0,36.2,21.0,32.0,26.1,20.0,97,70,37,30.49,30.19,5,1,16,0.00
2013-10-27,59.0,45.8,33.0,39.0,34.7,-99.9,95,69,44,30.24,30.14,5,1,12,0.00
2013-10-28,57.0,45.6,36.0,52.0,42.7,-99.9,99,93,81,30.39,30.24,2,0,6,0.01
2013-10-29,62.0,52.7,45.0,53.0,49.3,44.0,100,89,66,30.46,30.36,1,0,6,0.01
2013-10-30,66.0,56.3,51.0,58.0,53.4,49.0,98,90,73,30.38,30.24,2,0,9,0.13
2013-10-31,63.0,58.6,55.0,58.0,54.5,52.0,96,87,74,30.28,29.88,6,1,17,0.01
2013-11-1,70.0,60.8,49.0,59.0,53.9,45.0,96,79,52,29.88,29.69,8,2,26,0.13
2013-11-2,58.0,48.5,43.0,45.0,38.6,32.0,92,71,41,30.05,29.78,8,1,17,0.03
2013-11-3,50.0,40.8,30.0,36.0,31.9,-99.9,94,73,50,30.50,30.05,3,1,10,0.00
2013-11-4,47.0,36.7,30.0,31.0,28.3,25.0,94,73,53,30.68,30.49,2,0,7,0.00
2013-11-5,51.0,40.2,30.0,45.0,35.1,26.0,96,82,67,30.70,30.57,2,0,9,0.00
2013-11-6,63.0,50.0,43.0,50.0,45.5,42.0,99,86,60,30.57,30.22,5,0,8,0.00
2013-11-7,55.0,46.7,36.0,52.0,41.9,28.0,99,84,64,30.22,30.06,6,2,14,0.01
2013-11-8,43.0,34.5,26.0,28.0,25.0,22.0,87,69,43,30.45,30.21,7,2,14,0.01
2013-11-9,51.0,35.6,23.0,29.0,24.2,-99.9,91,68,37,30.47,30.30,3,0,12,0.00
2013-11-10,57.0,45.8,36.0,37.0,28.8,23.0,74,53,30,30.36,30.22,9,2,24,0.00
2013-11-11,58.0,39.5,27.0,29.0,25.5,23.0,86,61,29,30.44,30.24,5,0,8,0.00
2013-11-12,47.0,36.3,24.0,36.0,24.2,17.0,76,62,38,30.53,30.14,7,2,12,0.00
2013-11-13,37.0,26.6,20.0,19.0,15.8,13.0,85,65,37,30.66,30.51,5,2,9,0.00
2013-11-14,54.0,32.6,19.0,22.0,16.4,12.0,86,59,21,30.61,30.44,6,1,9,0.00
2013-11-15,58.0,40.3,25.0,46.0,29.1,16.0,98,70,20,30.45,30.33,2,0,9,0.31
2013-11-16,54.0,47.4,40.0,51.0,45.6,-99.9,100,96,91,30.37,30.30,3,0,5,0.04
2013-11-17,59.0,53.6,50.0,58.0,52.7,49.0,100,97,88,30.31,29.91,3,1,13,0.05
2013-11-18,59.0,51.4,42.0,58.0,39.0,25.0,98,66,33,30.08,29.88,7,3,18,0.20
2013-11-19,43.0,36.0,28.0,28.0,25.7,24.0,89,67,48,30.42,30.07,6,2,13,0.00
2013-11-20,42.0,33.2,28.0,27.0,24.3,22.0,87,70,48,30.60,30.41,3,0,10,0.00
2013-11-21,52.0,41.5,33.0,46.0,37.9,27.0,93,87,77,30.65,30.51,1,0,5,0.00
2013-11-30,36.0,26.1,17.0,24.0,19.3,-99.9,93,78,60,30.78,30.52,2,0,7,0.00
2013-12-1,50.0,30.4,18.0,29.0,21.9,17.0,95,75,30,30.52,30.20,3,0,12,0.01
2013-12-2,47.0,36.5,27.0,37.0,31.6,24.0,95,83,65,30.20,29.98,2,0,5,0.01
2013-12-3,55.0,42.9,32.0,44.0,38.6,30.0,96,86,65,30.08,29.97,1,0,8,0.00
2013-12-4,60.0,50.0,41.0,52.0,47.5,40.0,99,91,73,30.15,30.06,3,0,8,0.00
2013-12-5,64.0,56.9,47.0,59.0,54.3,46.0,99,91,74,30.16,30.06,3,1,10,0.00
2013-12-6,62.0,61.8,60.0,61.0,60.8,59.0,98,97,96,30.03,30.00,5,1,12,0.17
2013-12-26,41.0,31.6,23.0,26.0,21.3,19.0,86,67,51,30.53,30.41,6,1,13,0.17
2013-12-27,23.0,20.8,19.0,19.0,17.7,16.0,92,88,85,30.58,30.52,0,0,3,0.14